Time;durP1;ratioP1;P1;durP2;ratioP2;P2;SDS_P1;SDS_P2;PMS_P1;PMS_P2;Temp;Humidity;BMP_temperature;BMP_pressure;BME280_temperature;BME280_humidity;BME280_pressure;Samples;Min_cycle;Max_cycle;Signal;HPM_P1;HPM_P2
2021/06/16 00:04:34;;;;;;;0.00;0.00;;;;;;;8.11;87.39;102156.41;10542271;28;20020;-60
2021/06/16 00:09:35;;;;;;;0.00;0.00;;;;;;;8.04;89.18;102158.66;10569180;28;20065;-60
2021/06/16 00:14:37;;;;;;;0.00;0.00;;;;;;;8.07;89.29;102157.59;10571512;28;20062;-59
2021/06/16 00:19:37;;;;;;;0.00;0.00;;;;;;;7.98;88.52;102148.47;10559010;28;20544;-60
2021/06/16 00:24:38;;;;;;;0.00;0.00;;;;;;;7.91;89.33;102139.25;10553715;28;20024;-60
2021/06/16 00:29:38;;;;;;;0.00;0.00;;;;;;;7.82;89.48;102134.59;10565592;28;20111;-59
2021/06/16 00:34:39;;;;;;;0.00;0.00;;;;;;;7.76;88.97;102135.03;10540061;28;20012;-60
2021/06/16 00:39:39;;;;;;;0.00;0.00;;;;;;;7.66;88.54;102127.75;10555950;28;20485;-59
2021/06/16 00:44:40;;;;;;;0.00;0.00;;;;;;;7.59;89.53;102130.94;10547456;28;20031;-58
2021/06/16 00:49:41;;;;;;;0.00;0.00;;;;;;;7.55;88.81;102122.34;10559606;28;20028;-57
2021/06/16 00:54:41;;;;;;;0.00;0.00;;;;;;;7.48;90.00;102123.75;10567019;28;20469;-59
2021/06/16 00:59:59;;;;;;;0.00;0.00;;;;;;;7.42;89.88;102122.38;10572851;28;20398;-59
2021/06/16 01:05:01;;;;;;;0.00;0.00;;;;;;;7.34;89.96;102121.22;10573094;28;20522;-60
2021/06/16 01:10:04;;;;;;;0.00;0.00;;;;;;;7.27;89.76;102107.50;10566302;28;21786;-58
2021/06/16 01:15:10;;;;;;;0.00;0.00;;;;;;;7.06;89.16;102109.84;10561732;28;20030;-57
2021/06/16 01:20:16;;;;;;;0.00;0.00;;;;;;;7.00;89.87;102110.25;10560827;28;20055;-59
2021/06/16 01:25:33;;;;;;;0.00;0.00;;;;;;;6.99;90.20;102109.41;10569953;28;20532;-60
2021/06/16 01:30:35;;;;;;;0.00;0.00;;;;;;;6.92;90.20;102101.97;10555228;28;20055;-60
2021/06/16 01:35:39;;;;;;;0.00;0.00;;;;;;;6.98;91.74;102109.50;10560375;28;20011;-59
2021/06/16 01:40:40;;;;;;;0.00;0.00;;;;;;;6.98;91.87;102106.84;10568108;28;20023;-59
2021/06/16 01:45:43;;;;;;;0.00;0.00;;;;;;;6.99;92.49;102101.47;10555820;28;20099;-59
2021/06/16 01:50:45;;;;;;;0.00;0.00;;;;;;;6.94;91.96;102102.75;10562870;28;20028;-59
2021/06/16 01:55:48;;;;;;;0.00;0.00;;;;;;;6.95;92.38;102105.28;10554884;28;20386;-60
2021/06/16 02:00:52;;;;;;;0.00;0.00;;;;;;;6.97;92.57;102103.38;10550452;28;20405;-59
2021/06/16 02:05:52;;;;;;;0.00;0.00;;;;;;;6.99;92.13;102114.72;10559103;28;20031;-60
2021/06/16 02:10:54;;;;;;;0.00;0.00;;;;;;;6.94;92.35;102111.53;10557166;28;20026;-60
2021/06/16 02:15:59;;;;;;;0.00;0.00;;;;;;;6.86;91.92;102108.53;10567658;22;20089;-63
2021/06/16 02:21:00;;;;;;;0.00;0.00;;;;;;;6.83;92.55;102115.84;10482062;28;20082;-62
2021/06/16 02:26:01;;;;;;;0.10;0.10;;;;;;;6.71;92.51;102123.66;10457014;28;20511;-62
2021/06/16 02:31:01;;;;;;;0.00;0.00;;;;;;;6.67;91.04;102111.59;10453338;28;20083;-62
2021/06/16 02:36:03;;;;;;;0.00;0.00;;;;;;;6.59;92.30;102108.59;10453559;28;20546;-62
2021/06/16 02:41:09;;;;;;;0.00;0.00;;;;;;;6.54;91.76;102098.34;10452776;28;20036;-62
2021/06/16 02:46:11;;;;;;;0.00;0.00;;;;;;;6.46;92.18;102100.63;10454235;28;20043;-62
2021/06/16 02:51:13;;;;;;;0.10;0.10;;;;;;;6.55;92.29;102100.03;10487544;28;20025;-62
2021/06/16 02:56:14;;;;;;;0.00;0.00;;;;;;;6.63;92.76;102096.84;10449805;28;20017;-62
2021/06/16 03:01:19;;;;;;;0.00;0.00;;;;;;;6.75;92.06;102096.03;10452097;28;20108;-62
2021/06/16 03:06:22;;;;;;;0.00;0.00;;;;;;;6.94;90.60;102086.84;10452452;28;20025;-62
2021/06/16 03:11:24;;;;;;;0.00;0.00;;;;;;;7.15;90.51;102092.47;10452142;28;20059;-62
2021/06/16 03:16:26;;;;;;;0.00;0.00;;;;;;;8.16;88.52;102093.22;10456525;28;20021;-62
2021/06/16 03:21:28;;;;;;;0.00;0.00;;;;;;;9.10;82.98;102089.72;10463637;28;20426;-62
2021/06/16 03:26:29;;;;;;;0.00;0.00;;;;;;;9.98;81.30;102088.97;10472773;28;20028;-62
2021/06/16 03:31:31;;;;;;;0.00;0.00;;;;;;;10.91;79.24;102082.19;10433143;28;20021;-62
2021/06/16 03:36:33;;;;;;;0.00;0.00;;;;;;;11.79;76.67;102089.63;10451061;28;20488;-62
2021/06/16 03:41:37;;;;;;;0.10;0.10;;;;;;;12.67;74.02;102085.22;10448565;28;20557;-63
2021/06/16 03:46:40;;;;;;;0.10;0.10;;;;;;;13.80;70.85;102089.69;10437992;28;20071;-62
2021/06/16 03:51:42;;;;;;;0.15;0.15;;;;;;;14.86;68.21;102085.34;10464166;28;20062;-63
2021/06/16 03:56:43;;;;;;;0.20;0.20;;;;;;;15.70;64.88;102089.22;10458664;28;20036;-63
2021/06/16 04:01:44;;;;;;;0.10;0.10;;;;;;;16.48;62.89;102079.97;10477842;28;20041;-63
2021/06/16 04:06:46;;;;;;;0.10;0.10;;;;;;;16.94;60.87;102083.84;10488184;28;20017;-63
2021/06/16 04:11:47;;;;;;;0.10;0.10;;;;;;;17.28;59.91;102077.41;10451433;28;20459;-63
2021/06/16 04:16:48;;;;;;;0.10;0.10;;;;;;;17.78;58.13;102069.97;10486239;28;20028;-63
2021/06/16 04:21:49;;;;;;;0.10;0.10;;;;;;;18.49;57.05;102060.72;10481145;28;20267;-63
2021/06/16 04:26:49;;;;;;;0.10;0.10;;;;;;;19.16;54.86;102061.78;10485415;28;20025;-63
2021/06/16 04:31:50;;;;;;;0.10;0.10;;;;;;;19.44;52.87;102068.22;10489541;28;20029;-66
2021/06/16 04:36:50;;;;;;;0.10;0.10;;;;;;;19.79;52.35;102063.06;10491677;28;20283;-66
2021/06/16 04:41:51;;;;;;;0.10;0.10;;;;;;;20.58;52.25;102056.81;10492462;28;20036;-66
2021/06/16 04:46:52;;;;;;;0.10;0.10;;;;;;;21.17;50.36;102055.56;10492406;28;20056;-67
2021/06/16 04:51:53;;;;;;;0.10;0.10;;;;;;;21.35;50.15;102060.44;10492144;28;20017;-67
2021/06/16 04:56:53;;;;;;;0.10;0.10;;;;;;;21.65;50.04;102042.06;10492417;28;20021;-66
2021/06/16 05:01:54;;;;;;;0.10;0.10;;;;;;;22.28;49.14;102047.22;10490136;28;20545;-66
2021/06/16 05:06:55;;;;;;;0.10;0.10;;;;;;;22.73;48.60;102040.13;10490968;28;20025;-65
2021/06/16 05:11:55;;;;;;;0.10;0.10;;;;;;;22.73;47.45;102040.13;10474222;28;20032;-66
2021/06/16 05:16:55;;;;;;;0.10;0.10;;;;;;;23.07;47.89;102031.94;10492371;28;20025;-67
2021/06/16 05:22:05;;;;;;;0.10;0.10;;;;;;;23.46;47.07;102029.09;10491604;28;20086;-67
2021/06/16 05:27:06;;;;;;;0.10;0.10;;;;;;;23.80;48.27;102026.25;10491541;28;20035;-67
2021/06/16 05:32:07;;;;;;;0.10;0.10;;;;;;;24.27;46.93;102024.88;10491228;28;20047;-67
2021/06/16 05:37:08;;;;;;;0.10;0.10;;;;;;;24.86;46.65;102017.25;10491473;28;20020;-66
2021/06/16 05:42:09;;;;;;;0.10;0.10;;;;;;;25.26;45.03;102006.75;10492009;28;20028;-66
2021/06/16 05:47:09;;;;;;;0.10;0.10;;;;;;;25.42;43.07;102007.19;10491061;28;20202;-67
2021/06/16 05:52:10;;;;;;;0.10;0.10;;;;;;;25.41;43.56;102009.09;10497933;28;20258;-66
2021/06/16 05:57:10;;;;;;;0.10;0.10;;;;;;;25.65;43.15;101996.38;10498367;28;20021;-68
2021/06/16 06:02:11;;;;;;;0.10;0.10;;;;;;;25.93;43.96;101995.78;10497976;28;20271;-66
2021/06/16 06:07:11;;;;;;;0.10;0.10;;;;;;;26.26;42.72;101994.41;10498131;28;20247;-66
2021/06/16 06:12:11;;;;;;;0.10;0.10;;;;;;;26.32;41.24;101998.94;10496792;28;20035;-66
2021/06/16 06:17:12;;;;;;;0.10;0.10;;;;;;;26.45;40.43;101986.97;10482645;28;20533;-66
2021/06/16 06:22:12;;;;;;;0.10;0.10;;;;;;;26.87;40.71;101998.59;10455183;28;20115;-66
2021/06/16 06:27:13;;;;;;;0.10;0.10;;;;;;;26.84;38.96;101990.06;10455421;28;20169;-66
2021/06/16 06:32:13;;;;;;;0.10;0.10;;;;;;;27.37;38.13;101983.53;10455084;28;20021;-66
2021/06/16 06:37:13;;;;;;;0.10;0.10;;;;;;;28.03;38.66;101977.63;10455207;28;20025;-66
2021/06/16 06:42:15;;;;;;;0.10;0.10;;;;;;;28.40;36.96;101970.56;10454792;28;20119;-67
2021/06/16 06:47:16;;;;;;;0.10;0.10;;;;;;;28.63;37.78;101971.47;10454482;28;20032;-67
2021/06/16 06:52:17;;;;;;;0.10;0.10;;;;;;;28.85;36.23;101957.78;10453722;28;20487;-67
2021/06/16 06:57:17;;;;;;;0.10;0.10;;;;;;;28.91;37.63;101958.69;10454328;28;20434;-67
2021/06/16 07:02:17;;;;;;;0.10;0.10;;;;;;;28.59;36.33;101949.22;10452627;28;20483;-67
2021/06/16 07:07:18;;;;;;;0.10;0.10;;;;;;;28.49;39.27;101951.81;10454147;28;20021;-67
2021/06/16 07:12:18;;;;;;;0.10;0.10;;;;;;;28.30;37.13;101943.00;10453047;28;20043;-66
2021/06/16 07:17:20;;;;;;;0.10;0.10;;;;;;;27.61;36.18;101945.97;10453008;28;20499;-66
2021/06/16 07:22:20;;;;;;;0.20;0.20;;;;;;;27.31;37.34;101948.94;10452787;28;20036;-66
2021/06/16 07:27:21;;;;;;;0.10;0.10;;;;;;;27.56;38.46;101936.84;10452883;28;20021;-66
2021/06/16 07:32:21;;;;;;;0.10;0.10;;;;;;;27.69;35.70;101936.50;10452420;28;20388;-66
2021/06/16 07:37:22;;;;;;;0.10;0.10;;;;;;;27.44;35.15;101923.22;10452730;28;20460;-66
2021/06/16 07:42:22;;;;;;;0.10;0.10;;;;;;;27.23;36.00;101922.00;10452206;28;20028;-66
2021/06/16 07:47:22;;;;;;;0.10;0.10;;;;;;;26.99;36.70;101913.00;10452145;28;20025;-66
2021/06/16 07:52:23;;;;;;;0.03;0.03;;;;;;;27.14;38.12;101918.78;10471650;28;20047;-66
2021/06/16 07:57:23;;;;;;;0.10;0.10;;;;;;;27.08;36.05;101915.13;10493424;28;20032;-66
2021/06/16 08:02:24;;;;;;;0.10;0.10;;;;;;;26.69;35.59;101914.03;10492377;28;20044;-66
2021/06/16 08:07:24;;;;;;;0.10;0.10;;;;;;;26.47;36.44;101913.81;10493399;28;20032;-67
2021/06/16 08:12:25;;;;;;;0.10;0.10;;;;;;;26.14;37.43;101904.31;10492171;28;20028;-66
2021/06/16 08:17:25;;;;;;;0.10;0.10;;;;;;;26.58;37.22;101906.69;10508875;23;20044;-62
2021/06/16 08:22:25;;;;;;;0.10;0.10;;;;;;;26.36;36.21;101907.28;10503902;28;20267;-61
2021/06/16 08:27:26;;;;;;;0.03;0.03;;;;;;;26.52;35.78;101904.91;10492254;28;20039;-61
2021/06/16 08:32:27;;;;;;;0.10;0.10;;;;;;;26.50;36.45;101902.44;10491994;28;20025;-58
2021/06/16 08:37:27;;;;;;;0.10;0.10;;;;;;;26.80;35.96;101898.69;10492098;28;20127;-61
2021/06/16 08:42:28;;;;;;;0.10;0.10;;;;;;;26.84;35.89;101900.69;10491992;28;20041;-57
2021/06/16 08:47:29;;;;;;;0.10;0.10;;;;;;;27.00;36.39;101898.28;10492316;28;20024;-60
2021/06/16 08:52:30;;;;;;;0.10;0.10;;;;;;;27.36;36.72;101898.97;10490579;28;20021;-60
2021/06/16 08:57:30;;;;;;;0.10;0.10;;;;;;;27.59;39.17;101901.59;10490002;28;20463;-62
2021/06/16 09:02:30;;;;;;;0.10;0.10;;;;;;;27.13;33.67;101891.69;10484659;28;20071;-62
2021/06/16 09:07:33;;;;;;;0.10;0.10;;;;;;;26.57;33.31;101889.47;10485782;28;20483;-61
2021/06/16 09:12:36;;;;;;;0.10;0.10;;;;;;;26.27;31.63;101877.81;10486516;28;20020;-62
2021/06/16 09:17:37;;;;;;;0.10;0.10;;;;;;;26.06;36.06;101885.53;10491204;28;20036;-63
2021/06/16 09:22:38;;;;;;;0.10;0.10;;;;;;;26.26;36.70;101874.25;10490611;28;20020;-62
2021/06/16 09:27:39;;;;;;;0.10;0.10;;;;;;;26.31;33.96;101868.91;10499186;28;20094;-61
2021/06/16 09:32:43;;;;;;;0.10;0.10;;;;;;;26.19;38.68;101870.84;10498981;28;20108;-61
2021/06/16 09:37:43;;;;;;;0.10;0.10;;;;;;;25.77;38.07;101865.44;10480705;28;20107;-63
2021/06/16 09:42:43;;;;;;;0.10;0.10;;;;;;;25.65;37.51;101859.94;10497859;28;20119;-59
2021/06/16 09:47:44;;;;;;;0.10;0.10;;;;;;;25.72;40.23;101857.97;10498609;28;20095;-60
2021/06/16 09:52:45;;;;;;;0.10;0.10;;;;;;;26.26;37.96;101849.69;10497282;28;20020;-59
2021/06/16 09:58:05;;;;;;;0.10;0.10;;;;;;;26.25;41.58;101849.94;10497120;28;20441;-59
2021/06/16 10:03:23;;;;;;;0.10;0.10;;;;;;;26.20;37.58;101848.72;10497039;28;20497;-61
2021/06/16 10:08:24;;;;;;;0.10;0.10;;;;;;;25.85;36.62;101851.47;10497585;28;20307;-61
2021/06/16 10:13:26;;;;;;;0.10;0.10;;;;;;;26.13;38.79;101848.03;10496781;28;20436;-61
2021/06/16 10:18:28;;;;;;;0.10;0.10;;;;;;;25.80;41.35;101850.47;10497195;28;20483;-60
2021/06/16 10:23:29;;;;;;;0.10;0.10;;;;;;;25.62;41.77;101845.97;10496357;28;20395;-61
2021/06/16 10:28:36;;;;;;;0.10;0.10;;;;;;;26.01;37.61;101843.66;10496710;28;20035;-61
2021/06/16 10:33:41;;;;;;;0.10;0.10;;;;;;;25.90;40.64;101828.94;10496773;28;20066;-64
2021/06/16 10:39:02;;;;;;;0.08;0.08;;;;;;;25.91;41.12;101831.41;10495090;28;20115;-60
2021/06/16 10:44:22;;;;;;;0.10;0.10;;;;;;;26.12;39.13;101830.00;10495790;28;20552;-63
2021/06/16 10:49:40;;;;;;;0.10;0.10;;;;;;;26.34;41.52;101823.91;10496319;28;20063;-59
2021/06/16 10:54:57;;;;;;;0.03;0.03;;;;;;;26.45;40.46;101816.78;10495140;28;20095;-60
2021/06/16 11:00:04;;;;;;;0.10;0.10;;;;;;;26.27;41.27;101810.41;10477496;28;20035;-62
2021/06/16 11:05:28;;;;;;;0.10;0.10;;;;;;;26.37;38.98;101798.84;10494776;28;20029;-61
2021/06/16 11:10:52;;;;;;;0.10;0.10;;;;;;;26.55;37.87;101785.03;10494577;28;20017;-59
2021/06/16 11:15:52;;;;;;;0.10;0.10;;;;;;;26.62;36.94;101785.75;10494976;28;20189;-59
2021/06/16 11:20:58;;;;;;;0.10;0.10;;;;;;;26.30;42.92;101779.06;10494423;28;20469;-61
2021/06/16 11:25:58;;;;;;;0.10;0.10;;;;;;;26.27;39.81;101774.91;10476195;28;20029;-61
2021/06/16 11:31:02;;;;;;;0.00;0.00;;;;;;;26.18;41.42;101758.06;10494843;28;20082;-59
2021/06/16 11:36:09;;;;;;;0.08;0.08;;;;;;;26.01;39.41;101768.06;10511569;28;20021;-61
2021/06/16 11:41:21;;;;;;;0.10;0.10;;;;;;;26.35;40.35;101760.00;10537818;28;20058;-61
2021/06/16 11:46:28;;;;;;;0.00;0.00;;;;;;;26.64;39.34;101756.25;10535919;28;20115;-60
2021/06/16 11:51:35;;;;;;;0.10;0.10;;;;;;;26.28;42.29;101749.25;10534423;28;20020;-63
2021/06/16 11:56:39;;;;;;;0.10;0.10;;;;;;;26.36;40.56;101742.56;10517169;28;20460;-63
2021/06/16 12:01:40;;;;;;;0.10;0.10;;;;;;;26.32;41.37;101734.00;10535095;28;20028;-63
2021/06/16 12:06:41;;;;;;;0.10;0.10;;;;;;;26.35;42.62;101719.03;10503421;28;20475;-60
2021/06/16 12:11:41;;;;;;;0.10;0.10;;;;;;;26.15;42.44;101717.59;10492329;28;20116;-61
2021/06/16 12:16:43;;;;;;;0.10;0.10;;;;;;;26.14;42.64;101702.25;10492322;28;20115;-61
2021/06/16 12:22:17;;;;;;;0.10;0.10;;;;;;;26.43;39.38;101697.63;10491984;28;20032;-64
2021/06/16 12:27:20;;;;;;;0.10;0.10;;;;;;;26.35;42.25;101683.53;10492593;28;20021;-65
2021/06/16 12:32:28;;;;;;;0.10;0.10;;;;;;;26.16;41.48;101685.66;10491744;28;20020;-62
2021/06/16 12:37:29;;;;;;;0.10;0.10;;;;;;;26.09;41.67;101674.88;10491567;28;20443;-62
2021/06/16 12:42:42;;;;;;;0.10;0.10;;;;;;;26.31;39.24;101668.72;10491591;28;20111;-64
2021/06/16 12:47:42;;;;;;;0.08;0.08;;;;;;;26.45;42.28;101667.38;10491732;28;20032;-65
2021/06/16 12:52:43;;;;;;;0.10;0.10;;;;;;;26.48;40.42;101657.84;10491420;28;20029;-64
2021/06/16 12:57:48;;;;;;;0.10;0.10;;;;;;;26.57;37.96;101668.16;10492004;28;20069;-62
2021/06/16 13:02:48;;;;;;;0.10;0.10;;;;;;;26.64;41.16;101655.16;10499400;28;20024;-64
2021/06/16 13:07:55;;;;;;;0.10;0.10;;;;;;;26.45;38.09;101640.03;10500088;28;20047;-63
2021/06/16 13:13:13;;;;;;;0.10;0.10;;;;;;;26.54;39.46;101635.88;10499330;28;20433;-63
2021/06/16 13:18:16;;;;;;;0.10;0.10;;;;;;;26.86;43.41;101624.38;10499391;28;20032;-61
2021/06/16 13:23:22;;;;;;;0.10;0.10;;;;;;;26.92;38.58;101615.19;10498947;28;20025;-63
2021/06/16 13:28:30;;;;;;;0.10;0.10;;;;;;;26.86;40.24;101616.19;10479664;28;20025;-63
2021/06/16 13:33:40;;;;;;;0.10;0.10;;;;;;;26.81;37.24;101618.81;10473938;28;20027;-63
2021/06/16 13:38:43;;;;;;;0.10;0.10;;;;;;;26.96;39.87;101607.28;10491436;28;20020;-64
2021/06/16 13:43:44;;;;;;;0.03;0.03;;;;;;;27.16;40.09;101609.53;10492631;28;20028;-62
2021/06/16 13:48:44;;;;;;;0.10;0.10;;;;;;;27.27;41.38;101601.25;10498077;28;20020;-64
2021/06/16 13:53:45;;;;;;;0.10;0.10;;;;;;;27.21;39.77;101596.78;10497999;28;20070;-59
2021/06/16 13:58:45;;;;;;;0.10;0.10;;;;;;;27.20;38.39;101591.53;10497752;28;20270;-57
2021/06/16 14:03:45;;;;;;;0.10;0.10;;;;;;;27.24;42.71;101596.28;10497425;28;20032;-63
2021/06/16 14:08:46;;;;;;;0.10;0.10;;;;;;;27.09;38.88;101588.66;10497556;28;20474;-61
2021/06/16 14:13:46;;;;;;;0.10;0.10;;;;;;;27.12;42.70;101592.78;10496801;28;20111;-59
2021/06/16 14:18:46;;;;;;;0.10;0.10;;;;;;;27.02;42.22;101588.00;10523033;22;20127;-63
2021/06/16 14:23:47;;;;;;;0.10;0.10;;;;;;;27.00;42.32;101578.41;10578132;28;20081;-64
2021/06/16 14:28:48;;;;;;;0.10;0.10;;;;;;;27.15;41.26;101588.72;10580957;28;20111;-64
2021/06/16 14:33:49;;;;;;;0.07;0.07;;;;;;;27.37;44.67;101562.25;10561904;28;20023;-64
2021/06/16 14:38:49;;;;;;;0.10;0.10;;;;;;;27.48;40.50;101558.56;10580534;28;20027;-64
2021/06/16 14:43:50;;;;;;;0.10;0.10;;;;;;;27.71;42.48;101556.66;10579967;28;20089;-63
2021/06/16 14:48:50;;;;;;;0.10;0.10;;;;;;;27.90;42.49;101555.25;10566872;28;20047;-64
2021/06/16 14:53:50;;;;;;;0.10;0.10;;;;;;;27.93;39.57;101552.00;10537465;28;20119;-64
2021/06/16 14:58:51;;;;;;;0.10;0.10;;;;;;;27.84;40.57;101555.44;10537439;28;20028;-64
2021/06/16 15:03:51;;;;;;;0.10;0.10;;;;;;;27.68;38.81;101557.16;10536866;28;20460;-64
2021/06/16 15:08:51;;;;;;;0.10;0.10;;;;;;;27.72;41.06;101550.09;10537001;28;20066;-64
2021/06/16 15:13:52;;;;;;;0.10;0.10;;;;;;;27.70;37.68;101546.78;10536184;28;20027;-64
2021/06/16 15:18:53;;;;;;;0.10;0.10;;;;;;;27.73;40.05;101538.88;10536335;28;20402;-64
2021/06/16 15:23:53;;;;;;;0.10;0.10;;;;;;;27.60;36.65;101538.44;10535168;28;20039;-64
2021/06/16 15:28:53;;;;;;;0.10;0.10;;;;;;;27.69;40.79;101528.69;10536341;28;20032;-63
2021/06/16 15:33:54;;;;;;;0.00;0.00;;;;;;;27.89;42.17;101511.69;10535626;28;20047;-63
2021/06/16 15:38:54;;;;;;;0.10;0.10;;;;;;;27.72;38.25;101525.44;10535663;28;20032;-64
2021/06/16 15:43:55;;;;;;;0.00;0.00;;;;;;;27.86;41.67;101513.03;10535063;28;20028;-63
2021/06/16 15:48:55;;;;;;;0.10;0.10;;;;;;;27.98;39.81;101511.00;10535201;28;20028;-63
2021/06/16 15:53:56;;;;;;;0.10;0.10;;;;;;;28.04;40.57;101502.81;10535355;28;20024;-63
2021/06/16 15:58:56;;;;;;;0.10;0.10;;;;;;;27.92;39.57;101490.09;10535066;28;20024;-64
2021/06/16 16:03:56;;;;;;;0.10;0.10;;;;;;;27.98;42.00;101491.84;10534236;28;20052;-63
2021/06/16 16:08:57;;;;;;;0.10;0.10;;;;;;;28.10;42.80;101485.34;10535108;28;20051;-63
2021/06/16 16:13:58;;;;;;;0.10;0.10;;;;;;;28.11;42.94;101487.00;10534136;28;20462;-63
2021/06/16 16:18:59;;;;;;;0.00;0.00;;;;;;;28.12;41.77;101488.66;10534316;28;20042;-64
2021/06/16 16:23:59;;;;;;;0.10;0.10;;;;;;;28.02;41.03;101488.56;10533793;28;20030;-64
2021/06/16 16:29:00;;;;;;;0.10;0.10;;;;;;;27.83;42.69;101482.63;10533666;28;20035;-63
2021/06/16 16:34:00;;;;;;;0.10;0.10;;;;;;;27.67;40.59;101481.63;10532820;28;20020;-64
2021/06/16 16:39:02;;;;;;;0.10;0.10;;;;;;;27.68;40.63;101480.53;10530947;28;20418;-64
2021/06/16 16:44:02;;;;;;;0.10;0.10;;;;;;;27.71;45.01;101475.38;10529688;28;20027;-63
2021/06/16 16:49:04;;;;;;;0.00;0.00;;;;;;;27.74;45.06;101474.03;10531256;28;20118;-63
2021/06/16 16:54:05;;;;;;;0.10;0.10;;;;;;;27.63;40.96;101462.13;10531942;28;20443;-63
2021/06/16 16:59:05;;;;;;;0.10;0.10;;;;;;;27.49;40.79;101461.75;10533847;28;20115;-63
2021/06/16 17:04:06;;;;;;;0.10;0.10;;;;;;;27.34;41.68;101464.28;10533143;28;20028;-64
2021/06/16 17:09:06;;;;;;;0.10;0.10;;;;;;;27.22;44.57;101456.22;10533449;28;20527;-64
2021/06/16 17:14:07;;;;;;;0.10;0.10;;;;;;;27.27;43.75;101460.94;10533039;28;20388;-63
2021/06/16 17:19:07;;;;;;;0.10;0.10;;;;;;;27.39;42.38;101461.63;10533031;28;20020;-63
2021/06/16 17:24:08;;;;;;;0.00;0.00;;;;;;;27.46;42.29;101448.56;10532879;28;20278;-64
2021/06/16 17:29:09;;;;;;;0.10;0.10;;;;;;;27.41;42.86;101442.22;10533218;28;20028;-64
2021/06/16 17:34:09;;;;;;;0.10;0.10;;;;;;;27.20;46.60;101441.13;10533112;28;20024;-63
2021/06/16 17:39:09;;;;;;;0.10;0.10;;;;;;;26.95;45.73;101441.63;10532761;28;20043;-63
2021/06/16 17:44:10;;;;;;;0.10;0.10;;;;;;;26.61;49.33;101450.72;10533185;28;20107;-63
2021/06/16 17:49:10;;;;;;;0.10;0.10;;;;;;;26.37;50.29;101444.63;10568788;28;20435;-63
2021/06/16 17:54:14;;;;;;;0.10;0.10;;;;;;;26.14;51.58;101453.81;10581670;28;20058;-63
2021/06/16 17:59:15;;;;;;;0.10;0.10;;;;;;;26.07;51.18;101455.88;10582173;28;20028;-63
2021/06/16 18:04:16;;;;;;;0.10;0.10;;;;;;;26.02;53.06;101444.06;10581365;28;20032;-63
2021/06/16 18:09:16;;;;;;;0.10;0.10;;;;;;;25.98;49.08;101446.44;10582006;28;20026;-63
2021/06/16 18:14:16;;;;;;;0.10;0.10;;;;;;;25.99;49.23;101441.81;10581071;28;20072;-63
2021/06/16 18:19:17;;;;;;;0.10;0.10;;;;;;;25.74;52.13;101434.78;10551545;28;20035;-63
2021/06/16 18:24:17;;;;;;;0.10;0.10;;;;;;;25.46;52.96;101438.38;10538721;28;20278;-63
2021/06/16 18:29:19;;;;;;;0.10;0.10;;;;;;;25.34;52.85;101440.31;10538331;28;20027;-63
2021/06/16 18:34:20;;;;;;;0.10;0.10;;;;;;;25.28;53.53;101447.59;10538225;28;20262;-63
2021/06/16 18:39:20;;;;;;;0.10;0.10;;;;;;;25.20;53.57;101448.78;10538882;28;20225;-63
2021/06/16 18:44:21;;;;;;;0.10;0.10;;;;;;;25.07;55.80;101449.00;10537377;28;20103;-63
2021/06/16 18:49:21;;;;;;;0.10;0.10;;;;;;;25.01;54.46;101453.53;10545892;28;20549;-63
2021/06/16 18:54:26;;;;;;;0.10;0.10;;;;;;;24.94;55.31;101455.56;10537250;28;20475;-63
2021/06/16 18:59:30;;;;;;;0.10;0.10;;;;;;;24.79;56.37;101456.06;10536565;28;20048;-63
2021/06/16 19:04:47;;;;;;;0.10;0.10;;;;;;;24.60;56.02;101451.81;10537556;28;20103;-63
2021/06/16 19:09:48;;;;;;;0.10;0.10;;;;;;;24.32;58.40;101456.03;10538211;28;20114;-63
2021/06/16 19:14:48;;;;;;;0.10;0.10;;;;;;;23.98;59.53;101443.22;10537528;28;20101;-64
2021/06/16 19:19:50;;;;;;;0.10;0.10;;;;;;;23.76;59.66;101451.06;10562813;28;20398;-63
2021/06/16 19:24:50;;;;;;;0.10;0.10;;;;;;;23.54;61.46;101456.16;10579105;28;20416;-63
2021/06/16 19:29:51;;;;;;;0.10;0.10;;;;;;;23.30;62.10;101460.63;10578328;28;20054;-63
2021/06/16 19:34:51;;;;;;;0.10;0.10;;;;;;;23.13;62.47;101464.00;10578326;28;20020;-63
2021/06/16 19:39:52;;;;;;;0.10;0.10;;;;;;;22.93;64.57;101460.63;10578187;28;20027;-63
2021/06/16 19:44:52;;;;;;;0.10;0.10;;;;;;;22.63;65.72;101471.38;10577478;28;20108;-63
2021/06/16 19:49:54;;;;;;;0.10;0.10;;;;;;;22.36;66.92;101464.31;10542609;28;20024;-65
2021/06/16 19:54:54;;;;;;;0.10;0.10;;;;;;;21.95;67.42;101472.94;10535125;28;20028;-65
2021/06/16 19:59:55;;;;;;;0.10;0.10;;;;;;;21.52;68.61;101479.00;10535228;28;20027;-65
2021/06/16 20:04:56;;;;;;;0.00;0.00;;;;;;;21.21;69.57;101482.47;10516754;28;20018;-65
2021/06/16 20:09:56;;;;;;;0.10;0.10;;;;;;;20.91;70.66;101479.41;10534498;28;20289;-64
2021/06/16 20:14:56;;;;;;;0.10;0.10;;;;;;;20.68;71.25;101483.44;10534770;28;20016;-64
2021/06/16 20:19:57;;;;;;;0.10;0.10;;;;;;;20.44;72.71;101486.72;10567779;22;20401;-58
2021/06/16 20:24:57;;;;;;;0.10;0.10;;;;;;;20.20;73.38;101480.88;10537393;28;20317;-59
2021/06/16 20:29:58;;;;;;;0.10;0.10;;;;;;;20.02;73.36;101483.38;10534088;28;20043;-60
2021/06/16 20:34:58;;;;;;;0.10;0.10;;;;;;;19.90;73.98;101486.69;10534399;28;20032;-61
2021/06/16 20:39:59;;;;;;;0.10;0.10;;;;;;;19.86;73.71;101482.69;10533889;28;20024;-59
2021/06/16 20:44:59;;;;;;;0.10;0.10;;;;;;;19.83;73.58;101490.38;10533542;28;20386;-58
2021/06/16 20:50:00;;;;;;;0.10;0.10;;;;;;;19.75;73.72;101487.88;10541483;28;20055;-59
2021/06/16 20:55:00;;;;;;;0.10;0.10;;;;;;;19.67;74.13;101480.81;10533609;28;20020;-57
2021/06/16 21:00:01;;;;;;;0.10;0.10;;;;;;;19.54;74.80;101486.13;10533142;28;20024;-58
2021/06/16 21:05:02;;;;;;;0.10;0.10;;;;;;;19.35;75.29;101483.16;10533122;28;20077;-56
2021/06/16 21:10:04;;;;;;;0.10;0.10;;;;;;;19.20;75.91;101485.97;10533789;28;20300;-61
2021/06/16 21:15:05;;;;;;;0.10;0.10;;;;;;;19.02;76.35;101492.94;10533021;28;20402;-58
2021/06/16 21:20:07;;;;;;;0.10;0.10;;;;;;;18.92;76.51;101491.41;10546327;28;20409;-60
2021/06/16 21:25:08;;;;;;;0.10;0.10;;;;;;;18.92;76.67;101493.28;10583009;28;20059;-58
2021/06/16 21:30:09;;;;;;;0.10;0.10;;;;;;;18.94;76.76;101492.06;10582998;28;20065;-56
2021/06/16 21:35:11;;;;;;;0.10;0.10;;;;;;;19.06;76.57;101495.03;10583048;28;20039;-57
2021/06/16 21:40:12;;;;;;;0.17;0.17;;;;;;;19.15;76.40;101493.84;10582577;28;20015;-58
2021/06/16 21:45:14;;;;;;;0.10;0.10;;;;;;;19.08;76.30;101498.38;10582793;28;20027;-58
2021/06/16 21:50:15;;;;;;;0.10;0.10;;;;;;;18.93;76.56;101494.94;10573238;28;20442;-57
2021/06/16 21:55:17;;;;;;;0.10;0.10;;;;;;;18.79;77.30;101499.41;10544192;28;20031;-59
2021/06/16 22:00:20;;;;;;;0.10;0.10;;;;;;;18.65;77.97;101508.44;10539316;28;20024;-57
2021/06/16 22:05:20;;;;;;;0.10;0.10;;;;;;;18.49;78.45;101501.44;10539807;28;20394;-58
2021/06/16 22:10:21;;;;;;;0.10;0.10;;;;;;;18.33;79.41;101508.81;10538714;28;20024;-60
2021/06/16 22:15:22;;;;;;;0.10;0.10;;;;;;;18.37;79.64;101508.41;10539024;28;20019;-58
2021/06/16 22:20:23;;;;;;;0.10;0.10;;;;;;;18.38;79.52;101510.91;10552233;28;20064;-54
2021/06/16 22:25:24;;;;;;;0.10;0.10;;;;;;;18.33;79.20;101505.28;10580683;28;20028;-57
2021/06/16 22:30:27;;;;;;;0.10;0.10;;;;;;;18.23;79.65;101510.97;10580581;28;20028;-54
2021/06/16 22:35:28;;;;;;;0.17;0.17;;;;;;;18.14;80.26;101516.69;10580849;28;20019;-55
2021/06/16 22:40:29;;;;;;;0.10;0.10;;;;;;;18.05;81.05;101513.28;10579953;28;20084;-58
2021/06/16 22:45:29;;;;;;;0.10;0.10;;;;;;;17.99;81.11;101509.50;10580291;28;20110;-56
2021/06/16 22:50:31;;;;;;;0.10;0.10;;;;;;;18.00;81.13;101505.75;10564600;28;20099;-56
2021/06/16 22:55:32;;;;;;;0.10;0.10;;;;;;;18.03;80.98;101505.38;10538020;28;20012;-59
2021/06/16 23:00:34;;;;;;;0.10;0.10;;;;;;;18.05;80.62;101503.34;10536939;28;20020;-59
2021/06/16 23:05:38;;;;;;;0.10;0.10;;;;;;;18.04;80.91;101507.06;10537233;28;20429;-56
2021/06/16 23:10:41;;;;;;;0.10;0.10;;;;;;;18.06;80.94;101498.78;10536676;28;20028;-60
2021/06/16 23:15:42;;;;;;;0.10;0.10;;;;;;;18.07;80.84;101501.28;10536837;28;20020;-60